sensor_id;sensor_type;location;lat;lon;timestamp;P1;durP1;ratioP1;P2;durP2;ratioP2
10461;SDS011;5278;42.656;23.374;2023-04-01T00:01:23;13.57;;;7.77;;
10461;SDS011;5278;42.656;23.374;2023-04-01T00:03:51;15.37;;;8.47;;
10461;SDS011;5278;42.656;23.374;2023-04-01T00:06:19;12.07;;;7.60;;
10461;SDS011;5278;42.656;23.374;2023-04-01T00:08:46;14.63;;;7.80;;
10461;SDS011;5278;42.656;23.374;2023-04-01T00:11:13;11.97;;;7.70;;
10461;SDS011;5278;42.656;23.374;2023-04-01T00:13:41;10.77;;;8.97;;
10461;SDS011;5278;42.656;23.374;2023-04-01T00:16:10;11.57;;;8.00;;
10461;SDS011;5278;42.656;23.374;2023-04-01T00:18:37;11.20;;;7.63;;
10461;SDS011;5278;42.656;23.374;2023-04-01T00:21:05;15.37;;;7.50;;
10461;SDS011;5278;42.656;23.374;2023-04-01T00:23:32;16.17;;;7.93;;
10461;SDS011;5278;42.656;23.374;2023-04-01T00:25:59;12.23;;;7.53;;
10461;SDS011;5278;42.656;23.374;2023-04-01T00:28:26;9.87;;;7.73;;
10461;SDS011;5278;42.656;23.374;2023-04-01T00:30:54;11.83;;;7.80;;
10461;SDS011;5278;42.656;23.374;2023-04-01T00:33:22;11.43;;;8.17;;
10461;SDS011;5278;42.656;23.374;2023-04-01T00:35:49;10.00;;;7.33;;
10461;SDS011;5278;42.656;23.374;2023-04-01T00:38:16;9.53;;;6.97;;
10461;SDS011;5278;42.656;23.374;2023-04-01T00:40:44;13.83;;;7.20;;
10461;SDS011;5278;42.656;23.374;2023-04-01T00:43:13;10.33;;;6.97;;
10461;SDS011;5278;42.656;23.374;2023-04-01T00:45:43;12.10;;;7.77;;
10461;SDS011;5278;42.656;23.374;2023-04-01T00:48:13;7.70;;;6.80;;
10461;SDS011;5278;42.656;23.374;2023-04-01T00:50:44;13.30;;;6.90;;
10461;SDS011;5278;42.656;23.374;2023-04-01T00:53:13;11.03;;;7.97;;
10461;SDS011;5278;42.656;23.374;2023-04-01T00:55:43;11.77;;;7.00;;
10461;SDS011;5278;42.656;23.374;2023-04-01T00:58:17;11.50;;;6.53;;
10461;SDS011;5278;42.656;23.374;2023-04-01T01:00:47;9.80;;;6.63;;
10461;SDS011;5278;42.656;23.374;2023-04-01T01:03:16;12.47;;;7.13;;
10461;SDS011;5278;42.656;23.374;2023-04-01T01:05:50;11.40;;;7.47;;
10461;SDS011;5278;42.656;23.374;2023-04-01T01:08:37;9.20;;;6.17;;
10461;SDS011;5278;42.656;23.374;2023-04-01T01:11:13;7.67;;;6.00;;
10461;SDS011;5278;42.656;23.374;2023-04-01T01:13:47;11.03;;;6.57;;
10461;SDS011;5278;42.656;23.374;2023-04-01T01:16:22;9.40;;;5.10;;
10461;SDS011;5278;42.656;23.374;2023-04-01T01:18:54;11.27;;;5.87;;
10461;SDS011;5278;42.656;23.374;2023-04-01T01:24:26;10.57;;;5.50;;
10461;SDS011;5278;42.656;23.374;2023-04-01T01:26:59;7.17;;;4.63;;
10461;SDS011;5278;42.656;23.374;2023-04-01T01:29:50;8.47;;;5.17;;
10461;SDS011;5278;42.656;23.374;2023-04-01T01:32:31;6.70;;;4.90;;
10461;SDS011;5278;42.656;23.374;2023-04-01T01:35:14;8.07;;;4.77;;
10461;SDS011;5278;42.656;23.374;2023-04-01T01:37:46;6.23;;;4.00;;
10461;SDS011;5278;42.656;23.374;2023-04-01T01:40:16;7.50;;;3.77;;
10461;SDS011;5278;42.656;23.374;2023-04-01T01:42:45;8.00;;;4.40;;
10461;SDS011;5278;42.656;23.374;2023-04-01T01:45:17;7.57;;;3.47;;
10461;SDS011;5278;42.656;23.374;2023-04-01T01:47:46;5.97;;;3.67;;
10461;SDS011;5278;42.656;23.374;2023-04-01T01:50:17;6.57;;;3.70;;
10461;SDS011;5278;42.656;23.374;2023-04-01T01:52:45;5.00;;;3.40;;
10461;SDS011;5278;42.656;23.374;2023-04-01T01:55:27;8.40;;;3.53;;
10461;SDS011;5278;42.656;23.374;2023-04-01T01:57:55;5.67;;;3.47;;
10461;SDS011;5278;42.656;23.374;2023-04-01T02:00:25;7.07;;;3.80;;
10461;SDS011;5278;42.656;23.374;2023-04-01T02:02:53;7.13;;;4.07;;
10461;SDS011;5278;42.656;23.374;2023-04-01T02:05:24;7.87;;;4.33;;
10461;SDS011;5278;42.656;23.374;2023-04-01T02:07:55;8.10;;;3.90;;
10461;SDS011;5278;42.656;23.374;2023-04-01T02:10:27;5.63;;;3.07;;
10461;SDS011;5278;42.656;23.374;2023-04-01T02:12:59;7.80;;;3.70;;
10461;SDS011;5278;42.656;23.374;2023-04-01T02:15:29;6.53;;;3.17;;
10461;SDS011;5278;42.656;23.374;2023-04-01T02:18:00;3.70;;;3.17;;
10461;SDS011;5278;42.656;23.374;2023-04-01T02:20:30;5.30;;;3.77;;
10461;SDS011;5278;42.656;23.374;2023-04-01T02:22:58;8.53;;;3.23;;
10461;SDS011;5278;42.656;23.374;2023-04-01T02:25:27;5.47;;;3.00;;
10461;SDS011;5278;42.656;23.374;2023-04-01T02:27:55;4.53;;;3.17;;
10461;SDS011;5278;42.656;23.374;2023-04-01T02:30:24;8.63;;;2.90;;
10461;SDS011;5278;42.656;23.374;2023-04-01T02:32:54;5.67;;;3.60;;
10461;SDS011;5278;42.656;23.374;2023-04-01T02:35:23;9.03;;;4.03;;
10461;SDS011;5278;42.656;23.374;2023-04-01T02:37:55;9.47;;;3.80;;
10461;SDS011;5278;42.656;23.374;2023-04-01T02:40:22;5.50;;;3.07;;
10461;SDS011;5278;42.656;23.374;2023-04-01T02:42:50;6.80;;;3.90;;
10461;SDS011;5278;42.656;23.374;2023-04-01T02:45:17;5.17;;;3.73;;
10461;SDS011;5278;42.656;23.374;2023-04-01T02:47:44;6.60;;;3.73;;
10461;SDS011;5278;42.656;23.374;2023-04-01T02:50:11;8.60;;;5.03;;
10461;SDS011;5278;42.656;23.374;2023-04-01T02:52:38;6.20;;;4.00;;
10461;SDS011;5278;42.656;23.374;2023-04-01T02:55:07;5.70;;;3.70;;
10461;SDS011;5278;42.656;23.374;2023-04-01T02:57:36;8.57;;;4.20;;
10461;SDS011;5278;42.656;23.374;2023-04-01T03:00:04;6.83;;;4.27;;
10461;SDS011;5278;42.656;23.374;2023-04-01T03:02:36;7.30;;;4.23;;
10461;SDS011;5278;42.656;23.374;2023-04-01T03:05:04;5.47;;;4.27;;
10461;SDS011;5278;42.656;23.374;2023-04-01T03:07:32;8.00;;;4.67;;
10461;SDS011;5278;42.656;23.374;2023-04-01T03:10:00;8.30;;;4.57;;
10461;SDS011;5278;42.656;23.374;2023-04-01T03:12:31;11.00;;;5.47;;
10461;SDS011;5278;42.656;23.374;2023-04-01T03:14:58;8.47;;;5.07;;
10461;SDS011;5278;42.656;23.374;2023-04-01T03:17:25;8.37;;;5.53;;
10461;SDS011;5278;42.656;23.374;2023-04-01T03:19:52;11.77;;;6.20;;
10461;SDS011;5278;42.656;23.374;2023-04-01T03:22:18;9.07;;;5.80;;
10461;SDS011;5278;42.656;23.374;2023-04-01T03:24:47;8.57;;;5.40;;
10461;SDS011;5278;42.656;23.374;2023-04-01T03:27:14;8.77;;;6.13;;
10461;SDS011;5278;42.656;23.374;2023-04-01T03:29:43;9.20;;;5.57;;
10461;SDS011;5278;42.656;23.374;2023-04-01T03:32:11;10.37;;;5.10;;
10461;SDS011;5278;42.656;23.374;2023-04-01T03:34:37;8.83;;;4.57;;
10461;SDS011;5278;42.656;23.374;2023-04-01T03:37:04;6.97;;;4.97;;
10461;SDS011;5278;42.656;23.374;2023-04-01T03:39:31;8.07;;;5.33;;
10461;SDS011;5278;42.656;23.374;2023-04-01T03:42:00;14.17;;;6.77;;
10461;SDS011;5278;42.656;23.374;2023-04-01T03:44:29;9.90;;;5.47;;
10461;SDS011;5278;42.656;23.374;2023-04-01T03:46:59;9.33;;;5.87;;
10461;SDS011;5278;42.656;23.374;2023-04-01T03:49:26;11.37;;;6.43;;
10461;SDS011;5278;42.656;23.374;2023-04-01T03:51:54;9.73;;;6.67;;
10461;SDS011;5278;42.656;23.374;2023-04-01T03:54:21;10.63;;;6.43;;
10461;SDS011;5278;42.656;23.374;2023-04-01T03:56:48;9.87;;;6.80;;
10461;SDS011;5278;42.656;23.374;2023-04-01T03:59:15;9.93;;;6.53;;
10461;SDS011;5278;42.656;23.374;2023-04-01T04:01:43;9.53;;;6.13;;
10461;SDS011;5278;42.656;23.374;2023-04-01T04:04:14;11.17;;;6.53;;
10461;SDS011;5278;42.656;23.374;2023-04-01T04:06:41;11.77;;;6.67;;
10461;SDS011;5278;42.656;23.374;2023-04-01T04:09:08;16.13;;;7.37;;
10461;SDS011;5278;42.656;23.374;2023-04-01T04:11:35;11.40;;;7.27;;
10461;SDS011;5278;42.656;23.374;2023-04-01T04:14:02;12.73;;;7.97;;
10461;SDS011;5278;42.656;23.374;2023-04-01T04:16:29;11.27;;;6.77;;
10461;SDS011;5278;42.656;23.374;2023-04-01T04:18:57;10.07;;;6.57;;
10461;SDS011;5278;42.656;23.374;2023-04-01T04:21:25;10.67;;;6.37;;
10461;SDS011;5278;42.656;23.374;2023-04-01T04:23:52;9.13;;;6.00;;
10461;SDS011;5278;42.656;23.374;2023-04-01T04:26:19;12.33;;;5.73;;
10461;SDS011;5278;42.656;23.374;2023-04-01T04:28:46;10.47;;;6.37;;
10461;SDS011;5278;42.656;23.374;2023-04-01T04:31:17;7.93;;;5.47;;
10461;SDS011;5278;42.656;23.374;2023-04-01T04:33:45;8.30;;;5.70;;
10461;SDS011;5278;42.656;23.374;2023-04-01T04:36:12;6.47;;;5.23;;
10461;SDS011;5278;42.656;23.374;2023-04-01T04:38:41;9.40;;;6.20;;
10461;SDS011;5278;42.656;23.374;2023-04-01T04:41:08;21.93;;;6.17;;
10461;SDS011;5278;42.656;23.374;2023-04-01T04:43:37;9.53;;;5.57;;
10461;SDS011;5278;42.656;23.374;2023-04-01T04:46:04;8.00;;;4.50;;
10461;SDS011;5278;42.656;23.374;2023-04-01T04:48:32;8.73;;;4.57;;
10461;SDS011;5278;42.656;23.374;2023-04-01T04:50:59;7.50;;;4.30;;
10461;SDS011;5278;42.656;23.374;2023-04-01T04:53:29;9.80;;;4.67;;
10461;SDS011;5278;42.656;23.374;2023-04-01T04:55:57;8.07;;;4.20;;
10461;SDS011;5278;42.656;23.374;2023-04-01T04:58:24;9.13;;;5.30;;
10461;SDS011;5278;42.656;23.374;2023-04-01T05:00:51;7.77;;;5.03;;
10461;SDS011;5278;42.656;23.374;2023-04-01T05:03:18;8.03;;;5.03;;
10461;SDS011;5278;42.656;23.374;2023-04-01T05:05:49;9.23;;;5.43;;
10461;SDS011;5278;42.656;23.374;2023-04-01T05:08:18;11.97;;;5.13;;
10461;SDS011;5278;42.656;23.374;2023-04-01T05:10:45;8.77;;;5.13;;
10461;SDS011;5278;42.656;23.374;2023-04-01T05:13:13;12.87;;;6.17;;
10461;SDS011;5278;42.656;23.374;2023-04-01T05:15:40;10.13;;;5.80;;
10461;SDS011;5278;42.656;23.374;2023-04-01T05:18:07;8.17;;;5.20;;
10461;SDS011;5278;42.656;23.374;2023-04-01T05:20:34;8.00;;;4.83;;
10461;SDS011;5278;42.656;23.374;2023-04-01T05:23:01;15.33;;;5.60;;
10461;SDS011;5278;42.656;23.374;2023-04-01T05:25:29;9.67;;;5.47;;
10461;SDS011;5278;42.656;23.374;2023-04-01T05:27:56;7.87;;;5.27;;
10461;SDS011;5278;42.656;23.374;2023-04-01T05:30:24;8.40;;;4.67;;
10461;SDS011;5278;42.656;23.374;2023-04-01T05:32:51;7.20;;;5.23;;
10461;SDS011;5278;42.656;23.374;2023-04-01T05:35:18;12.23;;;5.30;;
10461;SDS011;5278;42.656;23.374;2023-04-01T05:37:46;11.93;;;5.53;;
10461;SDS011;5278;42.656;23.374;2023-04-01T05:40:13;9.53;;;5.50;;
10461;SDS011;5278;42.656;23.374;2023-04-01T05:42:39;10.00;;;5.13;;
10461;SDS011;5278;42.656;23.374;2023-04-01T05:45:07;6.00;;;5.37;;
10461;SDS011;5278;42.656;23.374;2023-04-01T05:47:36;10.33;;;5.33;;
10461;SDS011;5278;42.656;23.374;2023-04-01T05:50:03;8.20;;;5.30;;
10461;SDS011;5278;42.656;23.374;2023-04-01T05:52:30;7.80;;;4.87;;
10461;SDS011;5278;42.656;23.374;2023-04-01T05:54:57;11.87;;;5.90;;
10461;SDS011;5278;42.656;23.374;2023-04-01T05:57:25;10.10;;;5.97;;
10461;SDS011;5278;42.656;23.374;2023-04-01T05:59:52;14.43;;;8.27;;
10461;SDS011;5278;42.656;23.374;2023-04-01T06:02:19;11.17;;;7.90;;
10461;SDS011;5278;42.656;23.374;2023-04-01T06:04:47;13.20;;;8.03;;
10461;SDS011;5278;42.656;23.374;2023-04-01T06:07:15;13.43;;;5.93;;
10461;SDS011;5278;42.656;23.374;2023-04-01T06:09:43;7.93;;;4.80;;
10461;SDS011;5278;42.656;23.374;2023-04-01T06:12:17;9.23;;;5.20;;
10461;SDS011;5278;42.656;23.374;2023-04-01T06:14:58;9.90;;;4.77;;
10461;SDS011;5278;42.656;23.374;2023-04-01T06:17:37;8.67;;;5.57;;
10461;SDS011;5278;42.656;23.374;2023-04-01T06:20:20;9.57;;;5.70;;
10461;SDS011;5278;42.656;23.374;2023-04-01T06:23:01;9.23;;;5.10;;
10461;SDS011;5278;42.656;23.374;2023-04-01T06:25:53;8.53;;;4.20;;
10461;SDS011;5278;42.656;23.374;2023-04-01T06:28:44;9.27;;;4.27;;
10461;SDS011;5278;42.656;23.374;2023-04-01T06:31:26;8.70;;;4.57;;
10461;SDS011;5278;42.656;23.374;2023-04-01T06:34:12;11.93;;;4.97;;
10461;SDS011;5278;42.656;23.374;2023-04-01T06:36:59;12.83;;;4.70;;
10461;SDS011;5278;42.656;23.374;2023-04-01T06:39:42;6.60;;;5.20;;
10461;SDS011;5278;42.656;23.374;2023-04-01T06:42:29;11.23;;;4.90;;
10461;SDS011;5278;42.656;23.374;2023-04-01T06:45:09;9.47;;;5.23;;
10461;SDS011;5278;42.656;23.374;2023-04-01T06:47:54;9.50;;;5.60;;
10461;SDS011;5278;42.656;23.374;2023-04-01T06:50:32;9.77;;;5.63;;
10461;SDS011;5278;42.656;23.374;2023-04-01T06:53:10;9.67;;;6.00;;
10461;SDS011;5278;42.656;23.374;2023-04-01T06:55:43;7.73;;;5.00;;
10461;SDS011;5278;42.656;23.374;2023-04-01T06:58:17;13.37;;;5.87;;
10461;SDS011;5278;42.656;23.374;2023-04-01T07:00:48;10.37;;;4.90;;
10461;SDS011;5278;42.656;23.374;2023-04-01T07:03:20;9.30;;;6.50;;
10461;SDS011;5278;42.656;23.374;2023-04-01T07:05:49;9.50;;;6.97;;
10461;SDS011;5278;42.656;23.374;2023-04-01T07:08:20;13.97;;;7.57;;
10461;SDS011;5278;42.656;23.374;2023-04-01T07:10:50;10.03;;;5.90;;
10461;SDS011;5278;42.656;23.374;2023-04-01T07:13:24;12.47;;;5.33;;
10461;SDS011;5278;42.656;23.374;2023-04-01T07:15:57;13.30;;;6.17;;
10461;SDS011;5278;42.656;23.374;2023-04-01T07:18:30;13.00;;;6.10;;
10461;SDS011;5278;42.656;23.374;2023-04-01T07:21:03;11.60;;;6.10;;
10461;SDS011;5278;42.656;23.374;2023-04-01T07:23:38;9.30;;;5.67;;
10461;SDS011;5278;42.656;23.374;2023-04-01T07:26:13;10.17;;;5.67;;
10461;SDS011;5278;42.656;23.374;2023-04-01T07:28:44;13.82;;;6.45;;
10461;SDS011;5278;42.656;23.374;2023-04-01T07:52:38;8.03;;;5.23;;
10461;SDS011;5278;42.656;23.374;2023-04-01T07:55:18;9.43;;;5.13;;
10461;SDS011;5278;42.656;23.374;2023-04-01T07:57:51;10.47;;;4.67;;
10461;SDS011;5278;42.656;23.374;2023-04-01T08:00:25;10.90;;;5.30;;
10461;SDS011;5278;42.656;23.374;2023-04-01T08:03:05;12.27;;;4.60;;
10461;SDS011;5278;42.656;23.374;2023-04-01T08:05:46;10.10;;;4.57;;
10461;SDS011;5278;42.656;23.374;2023-04-01T08:08:23;14.60;;;5.27;;
10461;SDS011;5278;42.656;23.374;2023-04-01T08:11:01;8.77;;;4.77;;
10461;SDS011;5278;42.656;23.374;2023-04-01T08:13:40;9.13;;;5.00;;
10461;SDS011;5278;42.656;23.374;2023-04-01T08:16:14;10.77;;;4.63;;
10461;SDS011;5278;42.656;23.374;2023-04-01T08:18:46;9.30;;;5.13;;
10461;SDS011;5278;42.656;23.374;2023-04-01T08:21:21;7.27;;;5.00;;
10461;SDS011;5278;42.656;23.374;2023-04-01T08:23:52;8.87;;;5.20;;
10461;SDS011;5278;42.656;23.374;2023-04-01T08:26:27;7.73;;;5.27;;
10461;SDS011;5278;42.656;23.374;2023-04-01T08:28:59;9.90;;;5.00;;
10461;SDS011;5278;42.656;23.374;2023-04-01T08:31:29;9.93;;;5.40;;
10461;SDS011;5278;42.656;23.374;2023-04-01T08:33:59;10.30;;;4.40;;
10461;SDS011;5278;42.656;23.374;2023-04-01T08:36:31;7.03;;;4.03;;
10461;SDS011;5278;42.656;23.374;2023-04-01T08:39:04;9.53;;;4.73;;
10461;SDS011;5278;42.656;23.374;2023-04-01T08:41:53;9.10;;;4.63;;
10461;SDS011;5278;42.656;23.374;2023-04-01T08:47:52;9.23;;;4.90;;
10461;SDS011;5278;42.656;23.374;2023-04-01T08:50:40;15.77;;;5.53;;
10461;SDS011;5278;42.656;23.374;2023-04-01T08:53:31;10.73;;;5.70;;
10461;SDS011;5278;42.656;23.374;2023-04-01T08:56:09;9.23;;;4.30;;
10461;SDS011;5278;42.656;23.374;2023-04-01T08:58:54;9.67;;;4.50;;
10461;SDS011;5278;42.656;23.374;2023-04-01T09:04:43;12.90;;;4.30;;
10461;SDS011;5278;42.656;23.374;2023-04-01T09:07:39;11.63;;;4.20;;
10461;SDS011;5278;42.656;23.374;2023-04-01T09:13:13;6.83;;;4.73;;
10461;SDS011;5278;42.656;23.374;2023-04-01T09:15:50;9.47;;;4.10;;
10461;SDS011;5278;42.656;23.374;2023-04-01T09:21:32;6.80;;;4.43;;
10461;SDS011;5278;42.656;23.374;2023-04-01T09:27:26;9.70;;;4.60;;
10461;SDS011;5278;42.656;23.374;2023-04-01T09:33:21;11.47;;;4.07;;
10461;SDS011;5278;42.656;23.374;2023-04-01T09:36:12;8.03;;;3.47;;
10461;SDS011;5278;42.656;23.374;2023-04-01T09:38:53;7.17;;;3.80;;
10461;SDS011;5278;42.656;23.374;2023-04-01T09:41:28;6.50;;;3.63;;
10461;SDS011;5278;42.656;23.374;2023-04-01T09:44:03;10.57;;;3.67;;
10461;SDS011;5278;42.656;23.374;2023-04-01T09:46:40;6.37;;;3.50;;
10461;SDS011;5278;42.656;23.374;2023-04-01T09:52:15;10.40;;;3.90;;
10461;SDS011;5278;42.656;23.374;2023-04-01T09:55:02;6.87;;;3.60;;
10461;SDS011;5278;42.656;23.374;2023-04-01T10:01:04;4.53;;;3.20;;
10461;SDS011;5278;42.656;23.374;2023-04-01T10:10:28;7.70;;;4.40;;
10461;SDS011;5278;42.656;23.374;2023-04-01T10:16:21;20.57;;;9.20;;
10461;SDS011;5278;42.656;23.374;2023-04-01T10:22:27;22.17;;;11.53;;
10461;SDS011;5278;42.656;23.374;2023-04-01T10:25:22;10.30;;;5.50;;
10461;SDS011;5278;42.656;23.374;2023-04-01T10:28:14;15.63;;;7.90;;
10461;SDS011;5278;42.656;23.374;2023-04-01T10:31:18;6.57;;;3.33;;
10461;SDS011;5278;42.656;23.374;2023-04-01T10:37:10;9.17;;;4.10;;
10461;SDS011;5278;42.656;23.374;2023-04-01T10:43:06;23.63;;;13.57;;
10461;SDS011;5278;42.656;23.374;2023-04-01T10:46:20;11.83;;;6.77;;
10461;SDS011;5278;42.656;23.374;2023-04-01T10:49:16;15.57;;;8.87;;
10461;SDS011;5278;42.656;23.374;2023-04-01T10:52:23;8.43;;;5.53;;
10461;SDS011;5278;42.656;23.374;2023-04-01T10:58:36;9.97;;;5.83;;
10461;SDS011;5278;42.656;23.374;2023-04-01T11:04:51;24.70;;;14.43;;
10461;SDS011;5278;42.656;23.374;2023-04-01T11:10:52;13.27;;;7.33;;
10461;SDS011;5278;42.656;23.374;2023-04-01T11:23:22;7.27;;;4.20;;
10461;SDS011;5278;42.656;23.374;2023-04-01T11:26:09;6.93;;;3.73;;
10461;SDS011;5278;42.656;23.374;2023-04-01T11:32:06;11.40;;;3.10;;
10461;SDS011;5278;42.656;23.374;2023-04-01T11:37:49;5.53;;;2.10;;
10461;SDS011;5278;42.656;23.374;2023-04-01T11:40:26;7.07;;;2.77;;
10461;SDS011;5278;42.656;23.374;2023-04-01T11:43:01;6.70;;;2.27;;
10461;SDS011;5278;42.656;23.374;2023-04-01T11:45:36;6.73;;;2.40;;
10461;SDS011;5278;42.656;23.374;2023-04-01T11:51:10;4.77;;;3.03;;
10461;SDS011;5278;42.656;23.374;2023-04-01T11:53:56;4.83;;;2.47;;
10461;SDS011;5278;42.656;23.374;2023-04-01T11:56:43;5.60;;;2.13;;
10461;SDS011;5278;42.656;23.374;2023-04-01T11:59:32;7.87;;;3.00;;
10461;SDS011;5278;42.656;23.374;2023-04-01T12:02:20;5.40;;;2.57;;
10461;SDS011;5278;42.656;23.374;2023-04-01T12:04:58;5.90;;;2.57;;
10461;SDS011;5278;42.656;23.374;2023-04-01T12:07:50;5.00;;;2.50;;
10461;SDS011;5278;42.656;23.374;2023-04-01T12:10:27;8.50;;;2.97;;
10461;SDS011;5278;42.656;23.374;2023-04-01T12:13:02;4.07;;;2.63;;
10461;SDS011;5278;42.656;23.374;2023-04-01T12:15:43;4.43;;;2.87;;
10461;SDS011;5278;42.656;23.374;2023-04-01T12:18:21;6.97;;;2.73;;
10461;SDS011;5278;42.656;23.374;2023-04-01T12:20:54;6.73;;;3.97;;
10461;SDS011;5278;42.656;23.374;2023-04-01T12:23:42;7.30;;;2.90;;
10461;SDS011;5278;42.656;23.374;2023-04-01T12:26:27;4.13;;;2.73;;
10461;SDS011;5278;42.656;23.374;2023-04-01T12:29:08;5.10;;;2.70;;
10461;SDS011;5278;42.656;23.374;2023-04-01T12:31:49;5.17;;;2.70;;
10461;SDS011;5278;42.656;23.374;2023-04-01T12:37:26;6.17;;;3.47;;
10461;SDS011;5278;42.656;23.374;2023-04-01T12:40:05;5.00;;;3.30;;
10461;SDS011;5278;42.656;23.374;2023-04-01T12:42:50;7.97;;;3.50;;
10461;SDS011;5278;42.656;23.374;2023-04-01T12:45:27;4.70;;;2.50;;
10461;SDS011;5278;42.656;23.374;2023-04-01T12:48:01;4.00;;;2.90;;
10461;SDS011;5278;42.656;23.374;2023-04-01T12:53:46;4.60;;;3.30;;
10461;SDS011;5278;42.656;23.374;2023-04-01T12:56:38;5.03;;;3.77;;
10461;SDS011;5278;42.656;23.374;2023-04-01T13:02:17;6.70;;;3.80;;
10461;SDS011;5278;42.656;23.374;2023-04-01T13:05:01;3.47;;;3.17;;
10461;SDS011;5278;42.656;23.374;2023-04-01T13:10:38;6.23;;;3.70;;
10461;SDS011;5278;42.656;23.374;2023-04-01T13:13:30;4.53;;;3.43;;
10461;SDS011;5278;42.656;23.374;2023-04-01T13:16:13;8.10;;;4.53;;
10461;SDS011;5278;42.656;23.374;2023-04-01T13:18:49;5.07;;;3.17;;
10461;SDS011;5278;42.656;23.374;2023-04-01T13:21:25;4.30;;;2.57;;
10461;SDS011;5278;42.656;23.374;2023-04-01T13:24:07;6.13;;;3.53;;
10461;SDS011;5278;42.656;23.374;2023-04-01T13:26:47;3.03;;;1.93;;
10461;SDS011;5278;42.656;23.374;2023-04-01T13:29:25;5.20;;;2.20;;
10461;SDS011;5278;42.656;23.374;2023-04-01T13:32:04;2.77;;;2.30;;
10461;SDS011;5278;42.656;23.374;2023-04-01T13:34:40;4.50;;;2.33;;
10461;SDS011;5278;42.656;23.374;2023-04-01T13:37:20;4.30;;;1.90;;
10461;SDS011;5278;42.656;23.374;2023-04-01T13:40:02;3.77;;;2.40;;
10461;SDS011;5278;42.656;23.374;2023-04-01T13:42:44;2.83;;;2.10;;
10461;SDS011;5278;42.656;23.374;2023-04-01T13:45:16;7.40;;;2.67;;
10461;SDS011;5278;42.656;23.374;2023-04-01T13:47:53;3.27;;;2.33;;
10461;SDS011;5278;42.656;23.374;2023-04-01T13:50:55;4.13;;;2.80;;
10461;SDS011;5278;42.656;23.374;2023-04-01T13:53:43;3.40;;;2.10;;
10461;SDS011;5278;42.656;23.374;2023-04-01T13:56:29;3.27;;;2.43;;
10461;SDS011;5278;42.656;23.374;2023-04-01T14:05:30;5.10;;;2.43;;
10461;SDS011;5278;42.656;23.374;2023-04-01T14:08:13;4.23;;;2.40;;
10461;SDS011;5278;42.656;23.374;2023-04-01T14:10:48;4.73;;;3.47;;
10461;SDS011;5278;42.656;23.374;2023-04-01T14:13:28;9.93;;;4.10;;
10461;SDS011;5278;42.656;23.374;2023-04-01T14:16:07;5.27;;;3.67;;
10461;SDS011;5278;42.656;23.374;2023-04-01T14:18:55;7.30;;;3.83;;
10461;SDS011;5278;42.656;23.374;2023-04-01T14:21:38;4.53;;;3.80;;
10461;SDS011;5278;42.656;23.374;2023-04-01T14:24:27;5.57;;;3.93;;
10461;SDS011;5278;42.656;23.374;2023-04-01T14:27:19;7.03;;;4.60;;
10461;SDS011;5278;42.656;23.374;2023-04-01T14:29:58;5.93;;;3.77;;
10461;SDS011;5278;42.656;23.374;2023-04-01T14:32:41;4.50;;;3.87;;
10461;SDS011;5278;42.656;23.374;2023-04-01T14:35:29;4.37;;;2.87;;
10461;SDS011;5278;42.656;23.374;2023-04-01T14:38:18;8.20;;;4.90;;
10461;SDS011;5278;42.656;23.374;2023-04-01T14:41:17;7.10;;;3.60;;
10461;SDS011;5278;42.656;23.374;2023-04-01T14:43:54;6.63;;;3.13;;
10461;SDS011;5278;42.656;23.374;2023-04-01T14:46:50;6.87;;;3.80;;
10461;SDS011;5278;42.656;23.374;2023-04-01T14:49:45;4.40;;;3.07;;
10461;SDS011;5278;42.656;23.374;2023-04-01T14:52:15;4.33;;;3.50;;
10461;SDS011;5278;42.656;23.374;2023-04-01T14:54:52;6.20;;;4.60;;
10461;SDS011;5278;42.656;23.374;2023-04-01T14:57:23;3.07;;;2.77;;
10461;SDS011;5278;42.656;23.374;2023-04-01T14:59:52;6.57;;;3.50;;
10461;SDS011;5278;42.656;23.374;2023-04-01T15:05:16;4.27;;;2.80;;
10461;SDS011;5278;42.656;23.374;2023-04-01T15:08:05;4.87;;;2.73;;
10461;SDS011;5278;42.656;23.374;2023-04-01T15:13:54;4.67;;;3.30;;
10461;SDS011;5278;42.656;23.374;2023-04-01T15:16:52;9.03;;;4.60;;
10461;SDS011;5278;42.656;23.374;2023-04-01T15:19:34;7.90;;;4.60;;
10461;SDS011;5278;42.656;23.374;2023-04-01T15:22:26;5.43;;;3.50;;
10461;SDS011;5278;42.656;23.374;2023-04-01T15:28:11;6.00;;;4.60;;
10461;SDS011;5278;42.656;23.374;2023-04-01T15:30:49;7.17;;;4.37;;
10461;SDS011;5278;42.656;23.374;2023-04-01T15:33:29;5.60;;;4.37;;
10461;SDS011;5278;42.656;23.374;2023-04-01T15:36:16;7.20;;;4.47;;
10461;SDS011;5278;42.656;23.374;2023-04-01T15:39:02;8.53;;;4.10;;
10461;SDS011;5278;42.656;23.374;2023-04-01T15:41:39;6.97;;;3.73;;
10461;SDS011;5278;42.656;23.374;2023-04-01T15:47:13;7.77;;;4.60;;
10461;SDS011;5278;42.656;23.374;2023-04-01T15:50:03;8.00;;;3.97;;
10461;SDS011;5278;42.656;23.374;2023-04-01T15:52:49;8.23;;;4.93;;
10461;SDS011;5278;42.656;23.374;2023-04-01T15:55:21;8.60;;;4.30;;
10461;SDS011;5278;42.656;23.374;2023-04-01T15:58:02;4.23;;;1.93;;
10461;SDS011;5278;42.656;23.374;2023-04-01T16:00:52;2.30;;;2.10;;
10461;SDS011;5278;42.656;23.374;2023-04-01T16:03:31;2.10;;;1.90;;
10461;SDS011;5278;42.656;23.374;2023-04-01T16:06:20;3.20;;;2.00;;
10461;SDS011;5278;42.656;23.374;2023-04-01T16:09:17;3.97;;;2.20;;
10461;SDS011;5278;42.656;23.374;2023-04-01T16:12:02;6.27;;;3.40;;
10461;SDS011;5278;42.656;23.374;2023-04-01T16:14:38;4.47;;;3.10;;
10461;SDS011;5278;42.656;23.374;2023-04-01T16:17:20;5.83;;;3.10;;
10461;SDS011;5278;42.656;23.374;2023-04-01T16:20:07;3.10;;;2.80;;
10461;SDS011;5278;42.656;23.374;2023-04-01T16:22:49;3.40;;;3.10;;
10461;SDS011;5278;42.656;23.374;2023-04-01T16:25:27;3.70;;;3.30;;
10461;SDS011;5278;42.656;23.374;2023-04-01T16:28:04;4.07;;;3.33;;
10461;SDS011;5278;42.656;23.374;2023-04-01T16:30:46;3.77;;;2.80;;
10461;SDS011;5278;42.656;23.374;2023-04-01T16:33:26;4.30;;;3.10;;
10461;SDS011;5278;42.656;23.374;2023-04-01T16:36:04;4.50;;;3.47;;
10461;SDS011;5278;42.656;23.374;2023-04-01T16:38:38;3.70;;;3.30;;
10461;SDS011;5278;42.656;23.374;2023-04-01T16:41:14;3.93;;;3.53;;
10461;SDS011;5278;42.656;23.374;2023-04-01T16:43:45;2.87;;;2.60;;
10461;SDS011;5278;42.656;23.374;2023-04-01T16:46:32;3.97;;;3.07;;
10461;SDS011;5278;42.656;23.374;2023-04-01T16:49:27;4.07;;;2.97;;
10461;SDS011;5278;42.656;23.374;2023-04-01T16:52:03;2.97;;;2.40;;
10461;SDS011;5278;42.656;23.374;2023-04-01T16:54:41;2.70;;;2.17;;
10461;SDS011;5278;42.656;23.374;2023-04-01T16:57:18;2.53;;;2.30;;
10461;SDS011;5278;42.656;23.374;2023-04-01T16:59:53;2.43;;;2.23;;
10461;SDS011;5278;42.656;23.374;2023-04-01T17:02:26;2.43;;;2.03;;
10461;SDS011;5278;42.656;23.374;2023-04-01T17:05:00;2.27;;;2.07;;
10461;SDS011;5278;42.656;23.374;2023-04-01T17:07:35;2.43;;;2.23;;
10461;SDS011;5278;42.656;23.374;2023-04-01T17:13:03;2.47;;;1.83;;
10461;SDS011;5278;42.656;23.374;2023-04-01T17:15:45;2.17;;;1.97;;
10461;SDS011;5278;42.656;23.374;2023-04-01T17:18:22;1.80;;;1.70;;
10461;SDS011;5278;42.656;23.374;2023-04-01T17:21:04;1.70;;;1.60;;
10461;SDS011;5278;42.656;23.374;2023-04-01T17:23:35;1.60;;;1.50;;
10461;SDS011;5278;42.656;23.374;2023-04-01T17:26:13;1.60;;;1.50;;
10461;SDS011;5278;42.656;23.374;2023-04-01T17:28:53;2.00;;;1.80;;
10461;SDS011;5278;42.656;23.374;2023-04-01T17:31:33;2.13;;;1.90;;
10461;SDS011;5278;42.656;23.374;2023-04-01T17:40:04;1.70;;;1.60;;
10461;SDS011;5278;42.656;23.374;2023-04-01T17:42:42;1.90;;;1.80;;
10461;SDS011;5278;42.656;23.374;2023-04-01T17:45:20;1.70;;;1.60;;
10461;SDS011;5278;42.656;23.374;2023-04-01T17:47:57;1.90;;;1.80;;
10461;SDS011;5278;42.656;23.374;2023-04-01T17:50:33;2.27;;;1.60;;
10461;SDS011;5278;42.656;23.374;2023-04-01T17:53:20;1.97;;;1.53;;